Time;durP1;ratioP1;P1;durP2;ratioP2;P2;SDS_P1;SDS_P2;PMS_P1;PMS_P2;Temp;Humidity;BMP_temperature;BMP_pressure;BME280_temperature;BME280_humidity;BME280_pressure;Samples;Min_cycle;Max_cycle;Signal;HPM_P1;HPM_P2
2022/03/02 00:01:54;;;;;;;21.67;11.52;;;4.00;99.90;;;;;;4929755;28;20035;-85
2022/03/02 00:04:20;;;;;;;20.67;10.32;;;4.00;99.90;;;;;;4958191;23;20097;-92
2022/03/02 00:06:46;;;;;;;16.52;9.68;;;4.00;99.90;;;;;;4938199;28;20155;-92
2022/03/02 00:09:11;;;;;;;22.17;10.00;;;3.90;99.90;;;;;;4965560;28;20078;-92
2022/03/02 00:11:38;;;;;;;17.70;9.90;;;3.90;99.90;;;;;;4946565;28;20028;-92
2022/03/02 00:14:05;;;;;;;19.75;10.05;;;4.00;99.10;;;;;;4966847;28;20027;-92
2022/03/02 00:16:31;;;;;;;16.63;9.10;;;3.90;99.90;;;;;;4953468;28;20563;-93
2022/03/02 00:18:57;;;;;;;16.45;9.65;;;3.90;99.90;;;;;;4935449;28;20031;-92
2022/03/02 00:21:23;;;;;;;15.52;8.43;;;3.80;98.60;;;;;;4949726;28;20566;-92
2022/03/02 00:23:48;;;;;;;18.35;8.65;;;3.80;99.80;;;;;;4943188;28;20038;-93
2022/03/02 00:26:14;;;;;;;16.33;9.93;;;3.80;99.90;;;;;;4940563;28;20038;-93
2022/03/02 00:28:40;;;;;;;17.67;9.20;;;3.70;99.90;;;;;;4930782;28;20113;-92
2022/03/02 00:31:05;;;;;;;17.33;9.68;;;3.70;99.90;;;;;;4964084;28;20093;-92
2022/03/02 00:33:31;;;;;;;18.15;9.35;;;3.70;99.90;;;;;;4943068;28;20446;-92
2022/03/02 00:35:57;;;;;;;18.17;9.88;;;3.70;99.90;;;;;;4979320;28;20719;-93
2022/03/02 00:38:22;;;;;;;14.68;8.77;;;3.70;99.90;;;;;;4952414;28;20126;-92
2022/03/02 00:40:48;;;;;;;16.85;9.30;;;3.70;99.90;;;;;;4953427;28;20059;-92
2022/03/02 00:43:13;;;;;;;17.80;9.40;;;3.70;99.90;;;;;;4944946;28;20102;-92
2022/03/02 00:45:39;;;;;;;14.48;8.05;;;3.60;99.90;;;;;;4953665;28;20513;-92
2022/03/02 00:48:05;;;;;;;19.75;8.45;;;3.70;99.70;;;;;;4935398;28;20028;-92
2022/03/02 00:50:32;;;;;;;21.23;9.07;;;3.70;99.90;;;;;;4926762;28;20052;-92
2022/03/02 00:52:58;;;;;;;14.90;9.45;;;3.70;99.90;;;;;;4936233;28;20413;-92
2022/03/02 00:55:24;;;;;;;18.25;9.13;;;3.60;99.90;;;;;;4952564;28;20070;-92
2022/03/02 00:57:50;;;;;;;19.30;8.45;;;3.60;99.90;;;;;;4944936;28;20027;-92
2022/03/02 01:00:16;;;;;;;17.15;8.52;;;3.50;98.70;;;;;;4952578;28;20087;-92
2022/03/02 01:02:41;;;;;;;17.23;8.70;;;3.50;99.40;;;;;;4930737;28;20035;-92
2022/03/02 01:05:07;;;;;;;15.68;8.07;;;3.30;99.90;;;;;;4951381;28;20028;-92
2022/03/02 01:07:33;;;;;;;16.52;8.93;;;3.30;99.80;;;;;;4956104;28;20023;-93
2022/03/02 01:09:59;;;;;;;19.33;8.93;;;3.30;99.60;;;;;;4960529;28;20034;-93
2022/03/02 01:12:25;;;;;;;14.70;8.57;;;3.30;99.90;;;;;;4969416;28;20023;-92
2022/03/02 01:14:50;;;;;;;14.77;8.77;;;3.10;99.90;;;;;;4958508;28;20434;-92
2022/03/02 01:17:16;;;;;;;15.63;8.98;;;3.00;99.90;;;;;;4959007;28;20034;-92
2022/03/02 01:19:42;;;;;;;19.33;9.00;;;3.00;99.60;;;;;;4956615;28;20581;-92
2022/03/02 01:22:08;;;;;;;15.80;8.63;;;3.00;98.80;;;;;;4959469;28;20035;-92
2022/03/02 01:24:33;;;;;;;18.58;8.68;;;2.90;98.70;;;;;;4953716;28;20060;-92
2022/03/02 01:27:01;;;;;;;19.33;9.45;;;2.90;99.90;;;;;;4965653;28;20031;-92
2022/03/02 01:29:28;;;;;;;15.57;8.55;;;2.80;99.90;;;;;;4966518;28;20130;-92
2022/03/02 01:31:54;;;;;;;17.00;8.88;;;2.70;99.90;;;;;;4954638;28;20032;-92
2022/03/02 01:34:20;;;;;;;17.55;9.00;;;2.70;98.70;;;;;;4951237;28;20042;-92
2022/03/02 01:36:45;;;;;;;15.68;9.32;;;2.70;99.40;;;;;;4968479;28;20038;-92
2022/03/02 01:39:11;;;;;;;14.15;8.35;;;2.70;98.90;;;;;;4953355;28;20035;-93
2022/03/02 01:41:38;;;;;;;17.40;8.35;;;2.60;97.90;;;;;;4957197;28;20054;-92
2022/03/02 01:44:03;;;;;;;17.63;8.88;;;2.60;97.60;;;;;;4969901;28;20051;-92
2022/03/02 01:46:30;;;;;;;18.10;9.07;;;2.60;99.90;;;;;;4959264;28;20038;-92
2022/03/02 01:48:55;;;;;;;19.05;9.82;;;2.50;99.70;;;;;;4966362;28;20114;-91
2022/03/02 01:51:21;;;;;;;14.95;8.32;;;2.50;99.70;;;;;;4961920;28;20047;-92
2022/03/02 01:53:47;;;;;;;16.23;9.27;;;2.40;99.90;;;;;;4960151;28;20126;-91
2022/03/02 01:56:12;;;;;;;17.80;9.82;;;2.30;99.90;;;;;;4957639;28;20046;-91
2022/03/02 01:58:38;;;;;;;18.10;9.05;;;2.20;99.90;;;;;;4960573;28;20066;-91
2022/03/02 02:01:04;;;;;;;18.48;8.75;;;2.20;99.90;;;;;;4976803;28;20065;-92
2022/03/02 02:03:30;;;;;;;15.63;8.77;;;2.20;99.90;;;;;;4955175;28;20584;-91
2022/03/02 02:05:55;;;;;;;14.35;8.27;;;2.20;99.90;;;;;;4966477;28;20045;-91
2022/03/02 02:08:21;;;;;;;13.93;8.15;;;2.30;99.90;;;;;;4974911;28;20039;-91
2022/03/02 02:10:46;;;;;;;18.05;8.70;;;2.40;99.90;;;;;;4929971;28;20051;-91
2022/03/02 02:13:12;;;;;;;16.90;9.38;;;2.40;99.90;;;;;;4970775;28;20438;-92
2022/03/02 02:15:38;;;;;;;13.75;8.00;;;2.30;99.90;;;;;;4955973;28;20043;-91
2022/03/02 02:18:03;;;;;;;17.90;9.32;;;2.40;99.90;;;;;;4960976;28;20043;-92
2022/03/02 02:20:35;;;;;;;20.42;11.90;;;2.40;99.90;;;;;;4958104;28;20098;-93
2022/03/02 02:23:00;;;;;;;19.88;11.70;;;2.40;99.90;;;;;;4972992;28;20038;-92
2022/03/02 02:25:26;;;;;;;19.85;10.93;;;2.10;99.90;;;;;;4939349;28;20107;-93
2022/03/02 02:27:51;;;;;;;19.00;10.80;;;2.10;99.90;;;;;;4946849;28;20043;-92
2022/03/02 02:30:17;;;;;;;19.15;10.55;;;1.80;99.90;;;;;;4927500;28;20043;-92
2022/03/02 02:32:43;;;;;;;17.98;9.98;;;1.90;99.90;;;;;;4937352;28;20049;-92
2022/03/02 02:35:09;;;;;;;22.17;10.15;;;1.80;99.90;;;;;;4978840;28;20113;-92
2022/03/02 02:37:35;;;;;;;19.15;9.23;;;1.90;99.90;;;;;;4955317;28;20486;-92
2022/03/02 02:40:03;;;;;;;21.27;10.90;;;1.90;99.90;;;;;;4960446;28;20550;-91
2022/03/02 02:42:29;;;;;;;19.95;10.45;;;1.90;99.90;;;;;;4929792;28;20035;-92
2022/03/02 02:44:55;;;;;;;17.23;9.80;;;1.80;99.90;;;;;;4940024;28;20035;-91
2022/03/02 02:47:21;;;;;;;20.90;10.30;;;1.80;99.90;;;;;;4958483;28;20062;-92
2022/03/02 02:49:46;;;;;;;17.98;9.75;;;1.80;99.90;;;;;;4981399;28;20042;-91
2022/03/02 02:52:12;;;;;;;21.23;10.93;;;1.70;99.90;;;;;;4953235;28;20040;-92
2022/03/02 02:54:38;;;;;;;17.25;9.27;;;1.70;99.90;;;;;;4952988;28;20065;-91
2022/03/02 02:57:04;;;;;;;19.65;9.32;;;1.60;99.90;;;;;;4952964;28;20473;-92
2022/03/02 02:59:30;;;;;;;16.50;9.15;;;1.60;99.90;;;;;;4966724;28;20110;-92
2022/03/02 03:01:56;;;;;;;19.67;10.25;;;1.70;99.90;;;;;;4955735;28;20176;-92
2022/03/02 03:04:22;;;;;;;17.92;9.73;;;1.70;99.90;;;;;;4930111;28;20069;-91
2022/03/02 03:06:48;;;;;;;18.25;9.45;;;1.70;99.90;;;;;;4955624;28;20035;-92
2022/03/02 03:09:16;;;;;;;21.52;10.55;;;1.70;99.90;;;;;;4952125;28;20158;-92
2022/03/02 03:11:41;;;;;;;19.40;11.05;;;1.60;99.90;;;;;;4965462;28;20035;-91
2022/03/02 03:14:12;;;;;;;18.77;10.35;;;1.70;99.90;;;;;;4971431;28;20034;-92
2022/03/02 03:16:37;;;;;;;21.58;11.77;;;1.80;99.90;;;;;;4946679;28;20039;-92
2022/03/02 03:19:03;;;;;;;16.88;10.43;;;1.80;99.90;;;;;;4937278;28;20045;-91
2022/03/02 03:21:29;;;;;;;21.70;11.13;;;1.70;99.90;;;;;;4951855;28;20047;-88
2022/03/02 03:23:54;;;;;;;20.33;10.98;;;1.70;99.90;;;;;;4935940;28;20088;-87
2022/03/02 03:26:20;;;;;;;21.13;11.05;;;1.60;99.90;;;;;;4933368;28;20035;-88
2022/03/02 03:28:46;;;;;;;20.30;11.15;;;1.60;99.90;;;;;;4936756;28;20027;-89
2022/03/02 03:31:11;;;;;;;18.85;10.43;;;1.50;99.90;;;;;;4943562;28;20122;-87
2022/03/02 03:33:37;;;;;;;19.23;10.60;;;1.50;99.90;;;;;;4934603;28;20031;-87
2022/03/02 03:36:03;;;;;;;20.35;9.10;;;1.40;99.90;;;;;;4969907;28;20039;-90
2022/03/02 03:38:29;;;;;;;21.38;10.63;;;1.40;99.90;;;;;;4950990;28;20101;-89
2022/03/02 03:40:54;;;;;;;20.38;10.13;;;1.40;99.90;;;;;;4933443;28;20484;-90
2022/03/02 03:43:20;;;;;;;21.45;9.70;;;1.40;99.90;;;;;;4931214;28;20118;-86
2022/03/02 03:45:46;;;;;;;23.85;10.05;;;1.40;99.90;;;;;;4949977;28;20090;-87
2022/03/02 03:48:11;;;;;;;21.58;10.45;;;1.50;99.90;;;;;;4919880;28;20039;-88
2022/03/02 03:50:37;;;;;;;18.63;10.13;;;1.40;99.90;;;;;;4948107;28;20042;-88
2022/03/02 03:53:02;;;;;;;18.35;11.07;;;1.50;99.90;;;;;;4964392;28;20126;-90
2022/03/02 03:55:28;;;;;;;19.95;10.70;;;1.50;99.90;;;;;;4947503;28;20043;-86
2022/03/02 03:57:54;;;;;;;19.35;9.88;;;1.50;99.90;;;;;;4954236;28;20059;-89
2022/03/02 04:00:19;;;;;;;23.30;10.27;;;1.40;99.90;;;;;;4959065;28;20085;-88
2022/03/02 04:02:45;;;;;;;17.50;10.13;;;1.40;99.90;;;;;;4929463;28;20031;-88
2022/03/02 04:05:11;;;;;;;19.23;9.48;;;1.30;99.90;;;;;;4935025;28;20043;-87
2022/03/02 04:07:36;;;;;;;22.20;11.30;;;1.30;99.90;;;;;;4950940;28;20033;-88
2022/03/02 04:10:04;;;;;;;19.45;9.80;;;1.30;99.90;;;;;;4935664;28;20035;-88
2022/03/02 04:12:29;;;;;;;20.05;10.70;;;1.30;99.90;;;;;;4962905;28;20120;-88
2022/03/02 04:14:56;;;;;;;20.83;10.27;;;1.40;99.90;;;;;;4950845;28;20134;-87
2022/03/02 04:17:22;;;;;;;18.77;9.18;;;1.40;99.90;;;;;;4928540;28;20039;-89
2022/03/02 04:19:48;;;;;;;17.88;9.02;;;1.50;99.90;;;;;;4949557;28;20057;-89
2022/03/02 04:22:13;;;;;;;16.73;10.07;;;1.60;99.90;;;;;;4965798;28;20026;-89
2022/03/02 04:24:40;;;;;;;20.23;9.95;;;1.60;99.90;;;;;;4932936;28;20486;-86
2022/03/02 04:27:06;;;;;;;20.13;10.52;;;1.40;99.90;;;;;;4953024;28;20055;-89
2022/03/02 04:29:32;;;;;;;19.92;10.50;;;1.30;99.90;;;;;;4935726;28;20051;-87
2022/03/02 04:31:57;;;;;;;21.10;11.75;;;1.20;99.90;;;;;;4938641;28;20019;-87
2022/03/02 04:34:23;;;;;;;21.05;10.88;;;1.10;99.90;;;;;;4931037;28;20036;-88
2022/03/02 04:36:48;;;;;;;18.98;11.52;;;1.00;99.90;;;;;;4932064;28;20494;-87
2022/03/02 04:39:14;;;;;;;20.67;11.55;;;1.00;99.90;;;;;;4933869;28;20035;-89
2022/03/02 04:41:40;;;;;;;20.60;9.98;;;0.90;99.90;;;;;;4939979;28;20051;-87
2022/03/02 04:44:05;;;;;;;17.05;11.23;;;0.90;99.90;;;;;;4971499;28;20031;-87
2022/03/02 04:46:31;;;;;;;18.35;10.27;;;0.80;99.90;;;;;;4950800;28;20035;-86
2022/03/02 04:48:57;;;;;;;20.73;10.98;;;0.80;99.90;;;;;;4931296;28;20035;-87
2022/03/02 04:51:22;;;;;;;23.30;10.82;;;0.80;99.90;;;;;;4932953;28;20047;-89
2022/03/02 04:53:50;;;;;;;17.73;10.57;;;0.80;99.90;;;;;;4941912;28;20145;-87
2022/03/02 04:56:16;;;;;;;17.92;10.40;;;0.80;99.90;;;;;;4941894;28;20038;-87
2022/03/02 04:58:41;;;;;;;19.15;10.80;;;0.80;99.90;;;;;;4936021;28;20057;-87
2022/03/02 05:01:07;;;;;;;21.02;11.55;;;0.70;99.90;;;;;;4931598;28;20502;-87
2022/03/02 05:03:32;;;;;;;18.75;10.63;;;0.70;99.90;;;;;;4949551;28;20038;-91
2022/03/02 05:05:58;;;;;;;21.45;11.20;;;0.60;99.90;;;;;;4952790;28;20039;-87
2022/03/02 05:08:23;;;;;;;21.35;11.20;;;0.60;99.90;;;;;;4935334;28;20484;-87
2022/03/02 05:10:49;;;;;;;18.00;10.55;;;0.60;99.90;;;;;;4933969;28;20106;-87
2022/03/02 05:13:15;;;;;;;18.77;10.30;;;0.60;99.90;;;;;;4936765;28;20042;-87
2022/03/02 05:15:40;;;;;;;19.15;10.75;;;0.50;99.90;;;;;;4933621;28;20121;-87
2022/03/02 05:18:06;;;;;;;19.35;10.55;;;0.40;99.90;;;;;;4933303;28;20041;-87
2022/03/02 05:20:31;;;;;;;23.25;10.70;;;0.30;99.90;;;;;;4949294;28;20813;-87
2022/03/02 05:22:57;;;;;;;19.02;10.73;;;0.40;99.90;;;;;;4930953;28;20050;-88
2022/03/02 05:25:24;;;;;;;23.80;11.73;;;0.30;99.90;;;;;;4943768;28;20454;-87
2022/03/02 05:27:50;;;;;;;21.88;11.50;;;0.20;99.90;;;;;;4938339;28;20035;-87
2022/03/02 05:30:16;;;;;;;25.15;11.90;;;0.30;99.90;;;;;;4932915;28;20111;-88
2022/03/02 05:32:41;;;;;;;22.40;11.30;;;0.20;99.90;;;;;;4941505;28;20122;-87
2022/03/02 05:35:09;;;;;;;21.10;10.55;;;0.20;99.90;;;;;;4936661;28;20529;-86
2022/03/02 05:37:34;;;;;;;18.60;10.50;;;0.20;99.90;;;;;;4947687;28;20031;-88
2022/03/02 05:40:02;;;;;;;21.90;11.77;;;0.20;99.90;;;;;;4937505;28;20386;-88
2022/03/02 05:42:28;;;;;;;19.20;10.88;;;0.30;99.90;;;;;;4932953;28;20109;-89
2022/03/02 05:45:02;;;;;;;19.38;10.57;;;0.20;99.90;;;;;;4929727;28;20110;-87
2022/03/02 05:47:28;;;;;;;22.35;11.20;;;0.10;99.90;;;;;;4936587;28;20030;-87
2022/03/02 05:49:53;;;;;;;22.45;12.50;;;0.00;99.90;;;;;;4933858;28;20509;-87
2022/03/02 05:52:19;;;;;;;19.23;10.98;;;-0.10;99.90;;;;;;4919070;28;20167;-87
2022/03/02 05:54:45;;;;;;;20.48;11.90;;;-0.10;99.90;;;;;;4932690;28;20118;-87
2022/03/02 05:57:10;;;;;;;25.38;11.93;;;-0.10;99.90;;;;;;4922239;28;20031;-89
2022/03/02 05:59:36;;;;;;;19.90;10.88;;;-0.10;99.90;;;;;;4957353;28;20027;-87
2022/03/02 06:02:02;;;;;;;18.05;10.25;;;-0.10;99.90;;;;;;4947691;28;20090;-88
2022/03/02 06:04:27;;;;;;;21.13;10.55;;;-0.10;99.90;;;;;;4963534;28;20057;-88
2022/03/02 06:06:53;;;;;;;20.73;10.45;;;0.00;99.90;;;;;;4963032;28;20038;-89
2022/03/02 06:09:19;;;;;;;24.23;12.38;;;0.00;99.90;;;;;;4915992;28;20095;-89
2022/03/02 06:11:46;;;;;;;21.90;12.30;;;0.00;99.90;;;;;;4946823;28;20035;-87
2022/03/02 06:14:12;;;;;;;17.92;10.50;;;-0.10;99.90;;;;;;4938248;28;20035;-88
2022/03/02 06:16:37;;;;;;;25.95;12.95;;;-0.30;99.90;;;;;;4934753;28;20106;-88
2022/03/02 06:19:03;;;;;;;19.20;9.90;;;-0.30;99.90;;;;;;4942884;28;20063;-89
2022/03/02 06:21:29;;;;;;;17.27;10.23;;;-0.30;99.90;;;;;;4929774;28;20039;-88
2022/03/02 06:23:56;;;;;;;23.23;10.18;;;0.00;99.90;;;;;;4962329;28;20089;-87
2022/03/02 06:26:22;;;;;;;19.98;11.05;;;0.00;99.90;;;;;;4913458;28;20035;-89
2022/03/02 06:28:49;;;;;;;12.73;7.53;;;0.10;99.90;;;;;;4962838;28;20035;-89
2022/03/02 06:31:14;;;;;;;19.08;9.30;;;0.20;99.90;;;;;;4955057;28;20130;-88
2022/03/02 06:33:40;;;;;;;17.33;10.68;;;0.30;99.90;;;;;;4931759;28;20465;-91
2022/03/02 06:36:06;;;;;;;19.33;10.60;;;0.30;99.90;;;;;;4938825;28;20047;-89
2022/03/02 06:38:32;;;;;;;20.45;11.80;;;0.00;99.90;;;;;;4932751;28;20086;-88
2022/03/02 06:41:02;;;;;;;25.15;12.05;;;-0.10;99.90;;;;;;4952970;28;20097;-90
2022/03/02 06:43:33;;;;;;;22.63;11.75;;;-0.10;99.90;;;;;;4946576;28;20097;-89
2022/03/02 06:46:12;;;;;;;25.08;12.05;;;0.00;99.90;;;;;;4965758;28;20513;-88
2022/03/02 06:48:52;;;;;;;24.25;13.20;;;0.00;99.90;;;;;;4968722;28;20403;-89
2022/03/02 06:51:22;;;;;;;21.00;11.40;;;0.10;99.90;;;;;;4951755;28;20038;-88
2022/03/02 06:53:47;;;;;;;22.15;11.45;;;0.10;99.90;;;;;;4945903;28;20040;-88
2022/03/02 06:56:13;;;;;;;19.90;11.60;;;0.10;99.90;;;;;;4943086;28;20061;-90
2022/03/02 06:58:46;;;;;;;22.67;11.88;;;0.20;99.90;;;;;;4945522;28;20081;-87
2022/03/02 07:01:13;;;;;;;24.75;11.80;;;0.20;99.90;;;;;;4951233;28;20114;-87
2022/03/02 07:03:45;;;;;;;21.85;11.23;;;0.20;99.90;;;;;;4950156;28;20503;-87
2022/03/02 07:06:20;;;;;;;19.67;11.50;;;0.30;99.90;;;;;;4967750;28;20386;-88
2022/03/02 07:08:55;;;;;;;18.83;11.02;;;0.40;99.90;;;;;;4965173;28;20038;-90
2022/03/02 07:11:21;;;;;;;22.25;11.10;;;0.40;99.90;;;;;;4930979;28;20039;-89
2022/03/02 07:13:47;;;;;;;24.42;11.38;;;0.50;99.90;;;;;;4942192;28;20573;-88
2022/03/02 07:16:17;;;;;;;27.10;13.18;;;0.60;99.90;;;;;;4964830;28;20062;-88
2022/03/02 07:18:52;;;;;;;21.58;11.70;;;0.60;99.90;;;;;;4948735;28;20069;-90
2022/03/02 07:21:19;;;;;;;22.50;11.82;;;0.60;99.90;;;;;;4963659;28;20038;-90
2022/03/02 07:24:13;;;;;;;19.67;11.32;;;0.70;99.90;;;;;;4949849;28;20035;-89
2022/03/02 07:26:45;;;;;;;16.27;9.43;;;0.80;99.90;;;;;;4953625;28;20171;-89
2022/03/02 07:29:11;;;;;;;13.95;8.48;;;0.90;99.90;;;;;;4938997;28;20041;-91
2022/03/02 07:31:37;;;;;;;20.35;11.02;;;1.00;99.90;;;;;;4950701;28;20035;-89
2022/03/02 07:34:03;;;;;;;25.05;11.30;;;1.00;99.90;;;;;;4954621;28;20035;-89
2022/03/02 07:36:31;;;;;;;21.77;11.85;;;0.90;99.90;;;;;;4949974;28;20038;-89
2022/03/02 07:38:56;;;;;;;19.27;11.38;;;1.00;99.90;;;;;;4968356;28;20047;-88
2022/03/02 07:41:29;;;;;;;20.70;11.82;;;1.00;99.90;;;;;;4937597;28;20094;-89
2022/03/02 07:43:55;;;;;;;22.63;10.35;;;1.00;99.90;;;;;;4937634;28;20406;-87
2022/03/02 07:46:20;;;;;;;15.52;8.32;;;1.10;99.90;;;;;;4919799;28;20119;-88
2022/03/02 07:48:46;;;;;;;23.30;11.38;;;1.30;99.90;;;;;;4940795;28;20059;-88
2022/03/02 07:51:18;;;;;;;20.08;11.43;;;1.50;99.90;;;;;;4965076;28;20037;-88
2022/03/02 07:53:44;;;;;;;19.35;11.05;;;1.50;99.90;;;;;;4949253;28;20065;-90
2022/03/02 07:56:10;;;;;;;17.92;9.50;;;1.60;99.90;;;;;;4936240;28;20486;-89
2022/03/02 07:58:39;;;;;;;21.60;12.77;;;1.90;99.90;;;;;;4942463;28;20031;-91
2022/03/02 08:01:05;;;;;;;25.20;11.65;;;2.10;99.90;;;;;;4941833;28;20058;-88
2022/03/02 08:03:30;;;;;;;26.20;11.40;;;2.20;99.90;;;;;;4951387;28;20085;-91
2022/03/02 08:06:02;;;;;;;24.52;11.80;;;2.30;99.90;;;;;;4945261;28;20095;-90
2022/03/02 08:08:28;;;;;;;22.27;12.23;;;2.40;99.90;;;;;;4943529;28;20045;-88
2022/03/02 08:10:54;;;;;;;21.63;11.50;;;2.40;99.90;;;;;;4937785;28;20582;-88
2022/03/02 08:13:20;;;;;;;20.50;11.00;;;2.60;99.90;;;;;;4919143;28;20118;-90
2022/03/02 08:15:46;;;;;;;20.30;11.30;;;2.80;99.90;;;;;;4966753;28;20105;-87
2022/03/02 08:18:12;;;;;;;19.67;10.57;;;2.90;99.90;;;;;;4939191;28;20419;-88
2022/03/02 08:20:44;;;;;;;15.23;9.43;;;3.30;99.90;;;;;;4927328;28;20055;-90
2022/03/02 08:23:13;;;;;;;11.95;7.50;;;3.50;99.90;;;;;;4931217;28;20066;-89
2022/03/02 08:25:39;;;;;;;17.13;10.43;;;3.50;99.90;;;;;;4950064;28;20043;-89
2022/03/02 08:28:07;;;;;;;18.30;9.43;;;3.20;99.90;;;;;;4937799;28;20085;-89
2022/03/02 08:30:33;;;;;;;16.13;9.20;;;3.00;99.90;;;;;;4952081;28;20027;-90
2022/03/02 08:33:00;;;;;;;18.58;9.90;;;3.10;99.90;;;;;;4953038;28;20078;-91
2022/03/02 08:35:26;;;;;;;15.80;9.45;;;3.40;99.90;;;;;;4962193;28;20049;-93
2022/03/02 08:37:52;;;;;;;18.27;10.10;;;3.80;99.90;;;;;;4951500;28;20027;-90
2022/03/02 08:40:20;;;;;;;13.38;7.43;;;4.10;99.90;;;;;;4908557;28;20038;-89
2022/03/02 08:42:47;;;;;;;18.30;9.73;;;4.20;99.90;;;;;;4947836;28;20031;-89
2022/03/02 08:45:13;;;;;;;12.38;7.95;;;4.50;99.90;;;;;;4958643;28;20038;-89
2022/03/02 08:47:38;;;;;;;16.20;9.80;;;4.10;99.90;;;;;;4962916;28;20047;-90
2022/03/02 08:50:07;;;;;;;17.20;9.77;;;4.40;99.90;;;;;;4984053;28;20026;-90
2022/03/02 08:52:33;;;;;;;12.63;8.40;;;4.40;99.90;;;;;;4950763;28;20039;-89
2022/03/02 08:55:09;;;;;;;12.95;8.07;;;4.80;99.90;;;;;;4951765;28;20046;-89
2022/03/02 08:57:39;;;;;;;21.10;9.88;;;5.10;99.90;;;;;;4962300;28;20023;-89
2022/03/02 09:00:07;;;;;;;17.13;9.38;;;5.20;99.90;;;;;;4957282;28;20135;-90
2022/03/02 09:02:33;;;;;;;16.75;10.23;;;5.40;99.90;;;;;;4969011;28;20187;-89
2022/03/02 09:05:00;;;;;;;19.60;10.23;;;5.50;99.90;;;;;;4961919;28;20034;-90
2022/03/02 09:07:25;;;;;;;15.60;8.05;;;5.20;99.90;;;;;;4917937;28;20027;-90
2022/03/02 09:09:53;;;;;;;17.88;10.15;;;6.00;99.90;;;;;;4948520;28;20057;-89
2022/03/02 09:12:21;;;;;;;21.25;10.32;;;6.20;99.90;;;;;;4920236;28;20035;-90
2022/03/02 09:14:52;;;;;;;12.90;8.80;;;5.90;99.90;;;;;;4942498;28;20215;-89
2022/03/02 09:17:18;;;;;;;17.50;9.05;;;5.70;99.90;;;;;;4952645;28;20608;-88
2022/03/02 09:19:44;;;;;;;15.40;8.70;;;6.40;99.90;;;;;;4948895;28;20057;-89
2022/03/02 09:22:10;;;;;;;15.20;8.55;;;6.80;99.90;;;;;;4950088;28;20031;-90
2022/03/02 09:24:43;;;;;;;17.15;8.05;;;6.80;99.90;;;;;;4956064;28;20046;-89
2022/03/02 09:27:08;;;;;;;13.90;8.35;;;7.20;99.90;;;;;;4957007;28;20158;-91
2022/03/02 09:29:34;;;;;;;14.27;7.55;;;7.10;99.90;;;;;;4951017;28;20047;-90
2022/03/02 09:32:00;;;;;;;11.73;7.63;;;7.40;99.90;;;;;;4951169;28;20031;-90
2022/03/02 09:34:27;;;;;;;14.60;9.07;;;7.80;99.90;;;;;;4979354;28;20039;-89
2022/03/02 09:37:09;;;;;;;13.63;8.60;;;7.90;99.20;;;;;;4970079;28;20162;-90
2022/03/02 09:39:40;;;;;;;13.20;8.27;;;7.80;99.90;;;;;;4967688;28;20038;-90
2022/03/02 09:42:22;;;;;;;12.77;8.85;;;7.70;99.90;;;;;;4952326;28;20035;-90
2022/03/02 09:44:50;;;;;;;12.43;7.85;;;8.20;99.80;;;;;;4932468;28;20066;-91
2022/03/02 09:47:20;;;;;;;12.52;7.82;;;8.10;99.90;;;;;;4951013;28;20123;-89
2022/03/02 09:49:53;;;;;;;11.60;8.20;;;8.30;99.90;;;;;;4949912;28;20094;-89
2022/03/02 09:52:20;;;;;;;12.02;7.93;;;7.80;99.90;;;;;;4969831;28;20561;-90
2022/03/02 09:54:47;;;;;;;13.98;7.88;;;8.80;99.70;;;;;;4950635;28;20034;-89
2022/03/02 09:57:14;;;;;;;15.77;8.50;;;9.50;99.90;;;;;;4956966;28;20099;-90
2022/03/02 09:59:39;;;;;;;11.63;6.82;;;8.80;88.20;;;;;;4934497;28;20036;-90
2022/03/02 10:02:07;;;;;;;14.88;7.95;;;9.20;99.90;;;;;;4964270;28;20524;-89
2022/03/02 10:04:34;;;;;;;15.40;8.93;;;9.20;99.90;;;;;;4946295;28;20067;-90
2022/03/02 10:07:26;;;;;;;12.25;7.55;;;9.70;93.00;;;;;;4953421;28;20035;-90
2022/03/02 10:10:08;;;;;;;11.10;7.07;;;10.10;94.40;;;;;;4956082;28;20078;-89
2022/03/02 10:12:35;;;;;;;11.15;6.75;;;10.40;90.70;;;;;;4951415;28;20031;-89
2022/03/02 10:15:03;;;;;;;8.60;6.22;;;10.60;84.00;;;;;;4953164;28;20061;-91
2022/03/02 10:17:40;;;;;;;10.02;7.68;;;10.70;87.50;;;;;;4958316;28;20031;-89
2022/03/02 10:20:20;;;;;;;11.25;6.85;;;10.60;81.10;;;;;;4975273;28;20034;-89
2022/03/02 10:23:06;;;;;;;9.98;6.30;;;10.20;83.30;;;;;;4943784;28;20031;-89
2022/03/02 10:26:01;;;;;;;10.77;7.53;;;11.00;81.80;;;;;;4986259;28;20027;-91
2022/03/02 10:28:47;;;;;;;9.80;6.43;;;9.90;86.30;;;;;;4986100;28;20122;-89
2022/03/02 10:31:40;;;;;;;8.00;5.85;;;11.00;78.00;;;;;;4984753;28;20037;-91
2022/03/02 10:34:30;;;;;;;9.38;6.50;;;11.60;67.00;;;;;;4942795;28;20030;-90
2022/03/02 10:37:19;;;;;;;10.05;6.68;;;11.60;66.90;;;;;;4984606;28;20054;-89
2022/03/02 10:40:16;;;;;;;10.85;6.60;;;12.20;66.80;;;;;;4963417;28;20045;-90
2022/03/02 10:43:09;;;;;;;9.93;7.05;;;12.20;70.60;;;;;;4934115;28;20118;-90
2022/03/02 10:46:09;;;;;;;11.27;7.18;;;12.90;63.60;;;;;;4977537;28;20095;-90
2022/03/02 10:49:08;;;;;;;10.90;7.38;;;12.50;63.60;;;;;;4962046;28;20047;-90
2022/03/02 10:51:34;;;;;;;9.70;7.05;;;12.30;68.70;;;;;;4952595;28;20046;-90
2022/03/02 10:54:06;;;;;;;9.75;6.97;;;12.60;66.40;;;;;;4971892;28;20478;-90
2022/03/02 10:56:39;;;;;;;10.82;8.10;;;11.40;68.40;;;;;;4972360;28;20520;-89
2022/03/02 10:59:16;;;;;;;10.75;7.65;;;10.90;73.40;;;;;;4961976;28;20124;-90
2022/03/02 11:01:43;;;;;;;9.23;6.22;;;10.90;68.00;;;;;;4948288;28;20035;-89
2022/03/02 11:04:09;;;;;;;11.60;7.40;;;11.60;72.60;;;;;;4961210;28;20038;-89
2022/03/02 11:06:38;;;;;;;10.73;7.57;;;12.80;64.20;;;;;;4961056;28;20035;-89
2022/03/02 11:09:05;;;;;;;10.38;7.03;;;13.00;62.80;;;;;;4953803;28;20031;-88
2022/03/02 11:11:35;;;;;;;9.48;6.35;;;13.50;63.90;;;;;;4962859;28;20526;-89
2022/03/02 11:14:14;;;;;;;11.57;7.20;;;13.80;65.80;;;;;;4960130;28;20027;-89
2022/03/02 11:16:45;;;;;;;14.75;7.32;;;14.10;60.90;;;;;;4960059;28;20046;-91
2022/03/02 11:19:19;;;;;;;9.25;7.03;;;14.10;58.30;;;;;;4955502;28;20512;-89
2022/03/02 11:21:49;;;;;;;11.57;8.27;;;13.20;66.50;;;;;;4950267;28;20030;-90
2022/03/02 11:24:16;;;;;;;13.25;8.25;;;12.80;64.90;;;;;;4970772;28;20376;-90
2022/03/02 11:27:25;;;;;;;11.68;8.63;;;13.00;68.00;;;;;;4949776;28;20040;-89
2022/03/02 11:33:44;;;;;;;12.00;7.70;;;13.70;65.30;;;;;;4967737;28;20038;-90
2022/03/02 11:36:12;;;;;;;10.75;7.60;;;13.10;64.70;;;;;;4958311;28;20070;-89
2022/03/02 11:39:02;;;;;;;9.93;7.47;;;12.90;67.20;;;;;;4953717;28;20031;-90
2022/03/02 11:42:13;;;;;;;;;;;;;;;;;;;;;
2022/03/02 11:45:14;;;;;;;9.98;7.32;;;13.10;63.60;;;;;;4939072;28;20523;-90
2022/03/02 11:48:34;;;;;;;9.40;6.35;;;13.20;62.20;;;;;;4919858;28;20038;-90
2022/03/02 12:01:14;;;;;;;8.32;6.40;;;12.90;70.80;;;;;;4972912;28;20525;-91
2022/03/02 12:04:31;;;;;;;9.90;6.47;;;13.90;60.00;;;;;;4909273;28;20042;-91
2022/03/02 12:07:08;;;;;;;11.38;6.85;;;15.20;55.00;;;;;;4941533;28;20327;-90
2022/03/02 12:09:47;;;;;;;8.05;6.55;;;14.70;56.60;;;;;;4950697;28;20043;-90
2022/03/02 12:12:24;;;;;;;11.45;6.40;;;15.40;59.10;;;;;;4940964;28;20430;-90
2022/03/02 12:15:01;;;;;;;7.30;5.78;;;15.10;59.00;;;;;;4938045;28;20384;-91
2022/03/02 12:17:30;;;;;;;10.20;6.38;;;15.40;56.60;;;;;;4920252;28;20038;-90
2022/03/02 12:20:10;;;;;;;10.13;6.43;;;15.90;53.30;;;;;;4937483;28;20027;-90
2022/03/02 12:22:57;;;;;;;9.15;6.15;;;15.50;52.80;;;;;;4974721;28;20035;-91
2022/03/02 12:25:25;;;;;;;8.07;6.93;;;14.40;57.40;;;;;;4950083;28;20055;-90
2022/03/02 12:31:14;;;;;;;9.80;6.75;;;15.90;49.90;;;;;;4954999;28;20031;-90
2022/03/02 12:33:43;;;;;;;13.60;7.13;;;16.60;48.40;;;;;;4957538;28;20478;-91
2022/03/02 12:36:11;;;;;;;7.65;6.07;;;16.30;52.60;;;;;;4954324;28;20107;-90
2022/03/02 12:38:37;;;;;;;8.98;6.80;;;16.70;48.50;;;;;;4984205;28;20020;-91
2022/03/02 12:41:11;;;;;;;8.35;5.53;;;16.70;51.50;;;;;;4982234;28;20607;-90
2022/03/02 12:43:36;;;;;;;8.18;6.68;;;15.70;51.20;;;;;;4968035;28;20028;-90
2022/03/02 12:46:30;;;;;;;6.70;5.60;;;16.10;48.30;;;;;;4974814;28;20376;-91
2022/03/02 12:49:01;;;;;;;7.20;6.20;;;17.20;45.10;;;;;;4984296;28;20059;-90
2022/03/02 12:51:35;;;;;;;9.07;6.53;;;16.80;48.40;;;;;;4986591;28;20031;-91
2022/03/02 12:57:11;;;;;;;7.93;5.45;;;16.20;51.00;;;;;;4954116;28;20031;-90
2022/03/02 12:59:37;;;;;;;7.68;5.40;;;16.40;48.20;;;;;;4945276;28;20028;-91
2022/03/02 13:02:06;;;;;;;6.85;5.05;;;16.10;45.80;;;;;;4972752;28;20031;-92
2022/03/02 13:05:19;;;;;;;8.25;5.47;;;17.00;48.00;;;;;;4932183;28;20031;-91
2022/03/02 13:07:52;;;;;;;8.43;5.85;;;17.30;43.80;;;;;;4942369;28;20043;-89
2022/03/02 13:10:22;;;;;;;10.85;6.32;;;17.40;42.20;;;;;;4937112;28;20026;-91
2022/03/02 13:13:09;;;;;;;7.60;6.13;;;16.90;44.80;;;;;;4960042;28;20057;-92
2022/03/02 13:16:33;;;;;;;7.32;6.45;;;17.40;42.60;;;;;;4956917;28;20554;-91